sensor_id;sensor_type;location;lat;lon;timestamp;P1;durP1;ratioP1;P2;durP2;ratioP2
13685;SDS011;6915;48.296;8.874;2023-04-30T03:06:10;13.70;;;12.20;;
13685;SDS011;6915;48.296;8.874;2023-04-30T03:08:40;14.93;;;12.20;;
13685;SDS011;6915;48.296;8.874;2023-04-30T03:11:08;14.13;;;11.83;;
13685;SDS011;6915;48.296;8.874;2023-04-30T03:13:37;12.73;;;11.10;;
13685;SDS011;6915;48.296;8.874;2023-04-30T03:16:06;14.40;;;12.00;;
13685;SDS011;6915;48.296;8.874;2023-04-30T04:42:16;11.93;;;10.07;;
13685;SDS011;6915;48.296;8.874;2023-04-30T04:44:45;10.37;;;9.00;;
13685;SDS011;6915;48.296;8.874;2023-04-30T04:47:14;10.13;;;8.57;;
13685;SDS011;6915;48.296;8.874;2023-04-30T05:02:42;12.53;;;10.10;;
13685;SDS011;6915;48.296;8.874;2023-04-30T05:05:12;10.27;;;9.10;;
13685;SDS011;6915;48.296;8.874;2023-04-30T05:07:41;10.83;;;8.67;;
13685;SDS011;6915;48.296;8.874;2023-04-30T05:10:10;10.37;;;8.93;;
13685;SDS011;6915;48.296;8.874;2023-04-30T05:12:40;10.30;;;9.30;;
13685;SDS011;6915;48.296;8.874;2023-04-30T05:15:09;12.27;;;9.50;;
13685;SDS011;6915;48.296;8.874;2023-04-30T05:17:38;10.70;;;9.60;;
13685;SDS011;6915;48.296;8.874;2023-04-30T05:20:08;12.93;;;9.53;;
13685;SDS011;6915;48.296;8.874;2023-04-30T05:22:36;13.83;;;9.87;;
13685;SDS011;6915;48.296;8.874;2023-04-30T05:25:05;11.60;;;10.17;;
13685;SDS011;6915;48.296;8.874;2023-04-30T05:27:35;10.77;;;9.63;;
13685;SDS011;6915;48.296;8.874;2023-04-30T05:30:04;9.70;;;8.70;;
13685;SDS011;6915;48.296;8.874;2023-04-30T05:32:33;11.97;;;9.73;;
13685;SDS011;6915;48.296;8.874;2023-04-30T05:35:02;10.90;;;9.00;;
13685;SDS011;6915;48.296;8.874;2023-04-30T05:37:32;10.60;;;8.90;;
13685;SDS011;6915;48.296;8.874;2023-04-30T05:40:01;9.73;;;8.67;;
13685;SDS011;6915;48.296;8.874;2023-04-30T05:42:30;11.03;;;9.03;;
13685;SDS011;6915;48.296;8.874;2023-04-30T05:45:00;11.63;;;9.37;;
13685;SDS011;6915;48.296;8.874;2023-04-30T05:47:29;12.50;;;9.23;;
13685;SDS011;6915;48.296;8.874;2023-04-30T05:49:58;10.40;;;9.33;;
13685;SDS011;6915;48.296;8.874;2023-04-30T05:52:26;10.23;;;8.90;;
13685;SDS011;6915;48.296;8.874;2023-04-30T05:54:56;9.87;;;8.87;;
13685;SDS011;6915;48.296;8.874;2023-04-30T05:57:26;9.47;;;7.97;;
13685;SDS011;6915;48.296;8.874;2023-04-30T05:59:55;9.47;;;8.33;;
13685;SDS011;6915;48.296;8.874;2023-04-30T06:02:23;9.37;;;8.03;;
13685;SDS011;6915;48.296;8.874;2023-04-30T06:04:52;8.90;;;8.00;;
13685;SDS011;6915;48.296;8.874;2023-04-30T06:07:21;9.10;;;8.20;;
13685;SDS011;6915;48.296;8.874;2023-04-30T06:09:50;10.70;;;7.93;;
13685;SDS011;6915;48.296;8.874;2023-04-30T06:12:20;9.73;;;8.30;;
13685;SDS011;6915;48.296;8.874;2023-04-30T06:14:49;8.87;;;8.03;;
13685;SDS011;6915;48.296;8.874;2023-04-30T06:17:17;10.00;;;8.23;;
13685;SDS011;6915;48.296;8.874;2023-04-30T06:19:46;8.90;;;7.87;;
13685;SDS011;6915;48.296;8.874;2023-04-30T06:22:15;9.73;;;8.47;;
13685;SDS011;6915;48.296;8.874;2023-04-30T06:24:44;8.63;;;7.73;;
13685;SDS011;6915;48.296;8.874;2023-04-30T06:27:13;9.00;;;7.83;;
13685;SDS011;6915;48.296;8.874;2023-04-30T06:29:43;8.73;;;7.83;;
13685;SDS011;6915;48.296;8.874;2023-04-30T06:32:12;9.73;;;8.10;;
13685;SDS011;6915;48.296;8.874;2023-04-30T06:34:40;9.07;;;8.17;;
13685;SDS011;6915;48.296;8.874;2023-04-30T06:37:09;10.17;;;9.07;;
13685;SDS011;6915;48.296;8.874;2023-04-30T06:39:38;14.00;;;10.83;;
13685;SDS011;6915;48.296;8.874;2023-04-30T06:42:07;11.67;;;9.10;;
13685;SDS011;6915;48.296;8.874;2023-04-30T06:44:37;8.93;;;8.03;;
13685;SDS011;6915;48.296;8.874;2023-04-30T06:47:07;9.20;;;8.20;;
13685;SDS011;6915;48.296;8.874;2023-04-30T06:49:36;9.97;;;8.30;;
13685;SDS011;6915;48.296;8.874;2023-04-30T06:52:06;9.23;;;8.27;;
13685;SDS011;6915;48.296;8.874;2023-04-30T06:54:35;8.63;;;7.77;;
13685;SDS011;6915;48.296;8.874;2023-04-30T06:57:03;8.87;;;7.80;;
13685;SDS011;6915;48.296;8.874;2023-04-30T06:59:33;9.80;;;8.43;;
13685;SDS011;6915;48.296;8.874;2023-04-30T07:02:02;9.37;;;8.10;;
13685;SDS011;6915;48.296;8.874;2023-04-30T07:09:41;9.50;;;8.50;;
13685;SDS011;6915;48.296;8.874;2023-04-30T07:12:10;9.47;;;8.40;;
13685;SDS011;6915;48.296;8.874;2023-04-30T07:14:39;8.27;;;7.50;;
13685;SDS011;6915;48.296;8.874;2023-04-30T07:17:08;8.80;;;7.90;;
13685;SDS011;6915;48.296;8.874;2023-04-30T07:19:37;8.20;;;7.33;;
13685;SDS011;6915;48.296;8.874;2023-04-30T07:22:05;7.90;;;7.10;;
13685;SDS011;6915;48.296;8.874;2023-04-30T07:24:34;8.33;;;7.40;;
13685;SDS011;6915;48.296;8.874;2023-04-30T07:27:04;8.20;;;7.40;;
13685;SDS011;6915;48.296;8.874;2023-04-30T07:29:33;8.30;;;7.50;;
13685;SDS011;6915;48.296;8.874;2023-04-30T07:32:02;8.23;;;6.97;;
13685;SDS011;6915;48.296;8.874;2023-04-30T07:34:31;8.60;;;7.70;;
13685;SDS011;6915;48.296;8.874;2023-04-30T07:37:00;8.43;;;7.53;;
13685;SDS011;6915;48.296;8.874;2023-04-30T07:39:28;7.77;;;6.97;;
13685;SDS011;6915;48.296;8.874;2023-04-30T07:41:57;8.43;;;7.63;;
13685;SDS011;6915;48.296;8.874;2023-04-30T07:44:30;8.17;;;7.00;;
13685;SDS011;6915;48.296;8.874;2023-04-30T07:46:59;7.97;;;7.17;;
13685;SDS011;6915;48.296;8.874;2023-04-30T07:49:27;8.30;;;7.50;;
13685;SDS011;6915;48.296;8.874;2023-04-30T07:51:56;7.63;;;6.93;;
13685;SDS011;6915;48.296;8.874;2023-04-30T07:54:25;7.40;;;6.70;;
13685;SDS011;6915;48.296;8.874;2023-04-30T07:56:54;7.37;;;6.77;;
13685;SDS011;6915;48.296;8.874;2023-04-30T07:59:23;7.93;;;7.17;;
13685;SDS011;6915;48.296;8.874;2023-04-30T08:01:53;5.90;;;5.40;;
13685;SDS011;6915;48.296;8.874;2023-04-30T08:04:22;7.17;;;5.70;;
13685;SDS011;6915;48.296;8.874;2023-04-30T08:06:50;6.93;;;6.23;;
13685;SDS011;6915;48.296;8.874;2023-04-30T08:09:19;6.53;;;5.80;;
13685;SDS011;6915;48.296;8.874;2023-04-30T08:11:48;5.80;;;5.20;;
13685;SDS011;6915;48.296;8.874;2023-04-30T08:14:17;5.50;;;5.00;;
13685;SDS011;6915;48.296;8.874;2023-04-30T08:16:48;5.90;;;5.13;;
13685;SDS011;6915;48.296;8.874;2023-04-30T08:19:18;5.60;;;4.97;;
13685;SDS011;6915;48.296;8.874;2023-04-30T08:21:49;5.27;;;4.83;;
13685;SDS011;6915;48.296;8.874;2023-04-30T08:24:18;5.00;;;4.50;;
13685;SDS011;6915;48.296;8.874;2023-04-30T08:26:47;4.70;;;4.40;;
13685;SDS011;6915;48.296;8.874;2023-04-30T08:29:15;4.80;;;4.40;;
13685;SDS011;6915;48.296;8.874;2023-04-30T08:31:45;5.07;;;4.57;;
13685;SDS011;6915;48.296;8.874;2023-04-30T08:34:14;4.53;;;4.13;;
13685;SDS011;6915;48.296;8.874;2023-04-30T08:36:44;4.33;;;4.03;;
13685;SDS011;6915;48.296;8.874;2023-04-30T08:39:13;4.43;;;4.13;;
13685;SDS011;6915;48.296;8.874;2023-04-30T08:41:43;4.37;;;4.03;;
13685;SDS011;6915;48.296;8.874;2023-04-30T08:44:16;4.10;;;3.80;;
13685;SDS011;6915;48.296;8.874;2023-04-30T08:46:48;4.43;;;3.90;;
13685;SDS011;6915;48.296;8.874;2023-04-30T08:49:22;3.80;;;3.53;;
13685;SDS011;6915;48.296;8.874;2023-04-30T08:51:53;4.67;;;3.63;;
13685;SDS011;6915;48.296;8.874;2023-04-30T08:54:24;3.67;;;3.33;;
13685;SDS011;6915;48.296;8.874;2023-04-30T08:56:55;3.53;;;3.23;;
13685;SDS011;6915;48.296;8.874;2023-04-30T08:59:24;4.70;;;4.40;;
13685;SDS011;6915;48.296;8.874;2023-04-30T09:01:53;4.00;;;3.70;;
13685;SDS011;6915;48.296;8.874;2023-04-30T09:04:22;3.90;;;3.60;;
13685;SDS011;6915;48.296;8.874;2023-04-30T09:06:52;4.60;;;4.17;;
13685;SDS011;6915;48.296;8.874;2023-04-30T09:09:26;3.90;;;3.63;;
13685;SDS011;6915;48.296;8.874;2023-04-30T09:12:09;4.00;;;3.70;;
13685;SDS011;6915;48.296;8.874;2023-04-30T09:14:38;5.47;;;4.23;;
13685;SDS011;6915;48.296;8.874;2023-04-30T09:17:22;4.00;;;3.60;;
13685;SDS011;6915;48.296;8.874;2023-04-30T09:19:51;4.43;;;4.13;;
13685;SDS011;6915;48.296;8.874;2023-04-30T09:22:22;3.60;;;3.30;;
13685;SDS011;6915;48.296;8.874;2023-04-30T09:24:51;3.60;;;3.30;;
13685;SDS011;6915;48.296;8.874;2023-04-30T09:27:21;3.63;;;3.33;;
13685;SDS011;6915;48.296;8.874;2023-04-30T09:29:50;3.30;;;3.10;;
13685;SDS011;6915;48.296;8.874;2023-04-30T09:32:18;3.73;;;3.43;;
13685;SDS011;6915;48.296;8.874;2023-04-30T09:34:47;4.07;;;3.73;;
13685;SDS011;6915;48.296;8.874;2023-04-30T09:37:16;4.27;;;3.17;;
13685;SDS011;6915;48.296;8.874;2023-04-30T09:39:50;3.17;;;2.97;;
13685;SDS011;6915;48.296;8.874;2023-04-30T09:42:20;3.20;;;2.87;;
13685;SDS011;6915;48.296;8.874;2023-04-30T09:44:50;3.53;;;3.23;;
13685;SDS011;6915;48.296;8.874;2023-04-30T09:47:21;3.30;;;3.10;;
13685;SDS011;6915;48.296;8.874;2023-04-30T09:49:54;3.53;;;3.23;;
13685;SDS011;6915;48.296;8.874;2023-04-30T09:52:25;3.40;;;3.10;;
13685;SDS011;6915;48.296;8.874;2023-04-30T09:54:56;2.90;;;2.60;;
13685;SDS011;6915;48.296;8.874;2023-04-30T09:57:26;2.70;;;2.50;;
13685;SDS011;6915;48.296;8.874;2023-04-30T10:00:00;3.13;;;2.90;;
13685;SDS011;6915;48.296;8.874;2023-04-30T10:02:29;3.30;;;3.10;;
13685;SDS011;6915;48.296;8.874;2023-04-30T10:04:59;3.23;;;3.03;;
13685;SDS011;6915;48.296;8.874;2023-04-30T10:07:30;2.77;;;2.57;;
13685;SDS011;6915;48.296;8.874;2023-04-30T10:10:05;3.23;;;3.03;;
13685;SDS011;6915;48.296;8.874;2023-04-30T10:12:37;3.20;;;3.00;;
13685;SDS011;6915;48.296;8.874;2023-04-30T10:15:09;2.90;;;2.70;;
13685;SDS011;6915;48.296;8.874;2023-04-30T10:17:41;2.57;;;2.43;;
13685;SDS011;6915;48.296;8.874;2023-04-30T10:20:15;2.20;;;2.10;;
13685;SDS011;6915;48.296;8.874;2023-04-30T10:22:46;2.50;;;2.30;;
13685;SDS011;6915;48.296;8.874;2023-04-30T10:25:17;2.50;;;2.40;;
13685;SDS011;6915;48.296;8.874;2023-04-30T10:27:47;2.73;;;2.53;;
13685;SDS011;6915;48.296;8.874;2023-04-30T10:30:16;3.00;;;2.80;;
13685;SDS011;6915;48.296;8.874;2023-04-30T10:32:47;4.33;;;3.93;;
13685;SDS011;6915;48.296;8.874;2023-04-30T10:35:23;3.10;;;2.90;;
13685;SDS011;6915;48.296;8.874;2023-04-30T10:37:56;3.40;;;3.10;;
13685;SDS011;6915;48.296;8.874;2023-04-30T10:40:35;2.80;;;2.60;;
13685;SDS011;6915;48.296;8.874;2023-04-30T10:43:04;3.87;;;2.60;;
13685;SDS011;6915;48.296;8.874;2023-04-30T10:45:36;2.20;;;2.07;;
13685;SDS011;6915;48.296;8.874;2023-04-30T10:48:07;2.27;;;2.07;;
13685;SDS011;6915;48.296;8.874;2023-04-30T10:50:40;2.40;;;2.30;;
13685;SDS011;6915;48.296;8.874;2023-04-30T10:53:11;2.80;;;2.60;;
13685;SDS011;6915;48.296;8.874;2023-04-30T10:55:50;3.33;;;3.03;;
13685;SDS011;6915;48.296;8.874;2023-04-30T10:58:25;2.73;;;2.53;;
13685;SDS011;6915;48.296;8.874;2023-04-30T13:47:04;2.20;;;1.80;;
13685;SDS011;6915;48.296;8.874;2023-04-30T13:49:36;2.00;;;1.90;;
13685;SDS011;6915;48.296;8.874;2023-04-30T13:52:04;2.17;;;2.00;;
13685;SDS011;6915;48.296;8.874;2023-04-30T20:31:31;2.60;;;2.40;;
13685;SDS011;6915;48.296;8.874;2023-04-30T20:34:00;3.10;;;2.80;;
13685;SDS011;6915;48.296;8.874;2023-04-30T20:36:30;3.20;;;2.90;;
